Time;durP1;ratioP1;P1;durP2;ratioP2;P2;SDS_P1;SDS_P2;PMS_P1;PMS_P2;Temp;Humidity;BMP_temperature;BMP_pressure;BME280_temperature;BME280_humidity;BME280_pressure;Samples;Min_cycle;Max_cycle;Signal;HPM_P1;HPM_P2
2021/08/26 00:00:26;;;;;;;1.80;1.20;;;14.10;99.90;;;;;;5155008;27;20440;-83
2021/08/26 00:05:44;;;;;;;1.47;1.20;;;14.10;99.90;;;;;;5155253;27;20404;-83
2021/08/26 00:08:11;;;;;;;1.73;1.23;;;14.10;99.90;;;;;;5155145;27;20457;-83
2021/08/26 00:10:39;;;;;;;1.83;1.13;;;14.10;99.90;;;;;;5154684;27;21028;-83
2021/08/26 00:13:07;;;;;;;2.30;1.13;;;14.10;99.90;;;;;;5154945;27;20476;-82
2021/08/26 00:15:34;;;;;;;5.47;1.40;;;14.10;99.90;;;;;;5154998;27;20883;-82
2021/08/26 00:18:03;;;;;;;2.20;1.10;;;14.10;99.90;;;;;;5154645;27;20972;-82
2021/08/26 00:20:30;;;;;;;1.40;0.70;;;14.10;99.90;;;;;;5154929;27;20484;-82
2021/08/26 00:22:57;;;;;;;2.33;1.07;;;14.10;99.90;;;;;;5154599;27;20976;-82
2021/08/26 00:25:23;;;;;;;1.37;1.27;;;14.10;99.90;;;;;;5154588;27;20425;-82
2021/08/26 00:27:50;;;;;;;1.87;1.13;;;14.10;99.90;;;;;;5154840;27;20445;-82
2021/08/26 00:30:17;;;;;;;0.90;0.47;;;14.10;99.90;;;;;;5154564;27;20987;-81
2021/08/26 00:32:44;;;;;;;1.10;1.00;;;14.00;99.90;;;;;;5157757;27;20460;-81
2021/08/26 00:35:12;;;;;;;0.70;0.70;;;14.00;99.90;;;;;;5159233;27;20441;-82
2021/08/26 00:37:39;;;;;;;1.00;0.97;;;14.00;99.90;;;;;;5158578;27;20826;-82
2021/08/26 00:40:07;;;;;;;0.80;0.67;;;13.90;99.90;;;;;;5158915;27;20444;-82
2021/08/26 00:42:35;;;;;;;0.77;0.60;;;13.90;99.90;;;;;;5158391;27;20483;-82
2021/08/26 00:45:02;;;;;;;0.63;0.63;;;13.80;99.90;;;;;;5158757;27;20437;-82
2021/08/26 00:47:29;;;;;;;0.90;0.50;;;13.80;99.90;;;;;;5158717;27;20449;-81
2021/08/26 00:49:56;;;;;;;0.80;0.80;;;13.80;99.90;;;;;;5158303;27;20481;-82
2021/08/26 00:52:25;;;;;;;2.53;1.27;;;13.70;99.90;;;;;;5158539;27;20468;-82
2021/08/26 00:54:51;;;;;;;1.53;1.17;;;13.70;99.90;;;;;;5158582;27;20444;-82
2021/08/26 00:57:19;;;;;;;0.67;0.50;;;13.70;99.90;;;;;;5158614;27;20437;-82
2021/08/26 00:59:46;;;;;;;2.13;0.80;;;13.60;99.90;;;;;;5158776;27;20463;-82
2021/08/26 01:02:20;;;;;;;1.53;1.03;;;13.60;99.90;;;;;;5158344;27;20488;-81
2021/08/26 01:04:50;;;;;;;0.97;0.87;;;13.50;99.90;;;;;;5158462;27;20406;-82
2021/08/26 01:07:28;;;;;;;0.90;0.80;;;13.50;99.90;;;;;;5158344;27;20441;-82
2021/08/26 01:09:59;;;;;;;1.73;0.70;;;13.40;99.90;;;;;;5158433;27;20469;-81
2021/08/26 01:12:29;;;;;;;4.97;1.20;;;13.40;99.90;;;;;;5158203;27;20460;-82
2021/08/26 01:14:56;;;;;;;1.13;1.03;;;13.30;99.90;;;;;;5158134;27;20468;-82
2021/08/26 01:17:24;;;;;;;1.20;0.93;;;13.30;99.90;;;;;;5158153;27;20849;-82
2021/08/26 01:19:53;;;;;;;2.43;0.70;;;13.30;99.90;;;;;;5158077;27;20445;-82
2021/08/26 01:22:21;;;;;;;1.67;0.80;;;13.20;99.90;;;;;;5157974;27;20836;-82
2021/08/26 01:24:55;;;;;;;1.13;0.67;;;13.20;99.90;;;;;;5157663;27;20976;-81
2021/08/26 01:27:24;;;;;;;0.60;0.60;;;13.20;99.90;;;;;;5157986;27;20432;-82
2021/08/26 01:29:51;;;;;;;1.33;0.80;;;13.10;99.90;;;;;;5157831;27;20448;-82
2021/08/26 01:32:19;;;;;;;1.07;0.97;;;13.10;99.90;;;;;;5157752;27;20469;-81
2021/08/26 01:34:45;;;;;;;1.53;0.87;;;13.10;99.90;;;;;;5157825;27;20448;-82
2021/08/26 01:37:16;;;;;;;0.60;0.60;;;13.10;99.90;;;;;;5157783;27;20441;-82
2021/08/26 01:39:46;;;;;;;1.53;1.00;;;13.10;99.90;;;;;;5157791;27;20428;-82
2021/08/26 01:42:13;;;;;;;8.60;1.40;;;13.10;99.90;;;;;;5157265;27;20477;-81
2021/08/26 01:44:42;;;;;;;0.97;0.60;;;13.10;99.90;;;;;;5156599;27;20452;-82
2021/08/26 01:47:10;;;;;;;0.80;0.70;;;13.10;99.90;;;;;;5157554;27;20441;-81
2021/08/26 01:49:37;;;;;;;2.17;1.00;;;13.10;99.90;;;;;;5157515;27;20520;-81
2021/08/26 01:52:06;;;;;;;0.60;0.60;;;13.10;99.90;;;;;;5157091;27;20476;-81
2021/08/26 01:54:32;;;;;;;1.47;1.37;;;13.10;99.90;;;;;;5157459;27;20579;-81
2021/08/26 01:56:59;;;;;;;1.57;0.90;;;13.10;99.90;;;;;;5157387;27;20460;-82
2021/08/26 01:59:26;;;;;;;1.13;1.03;;;13.10;99.90;;;;;;5156976;27;20441;-82
2021/08/26 02:01:54;;;;;;;0.90;0.60;;;13.10;99.90;;;;;;5156959;27;20449;-81
2021/08/26 02:04:21;;;;;;;2.20;1.40;;;13.10;99.90;;;;;;5157141;27;20467;-81
2021/08/26 02:06:48;;;;;;;2.60;1.03;;;13.10;99.90;;;;;;5157188;27;20444;-81
2021/08/26 02:09:14;;;;;;;1.53;1.20;;;13.00;99.90;;;;;;5157186;27;20449;-81
2021/08/26 02:11:41;;;;;;;0.70;0.70;;;13.00;99.90;;;;;;5157145;27;20488;-82
2021/08/26 02:14:08;;;;;;;2.33;1.10;;;13.00;99.90;;;;;;5156680;27;20465;-81
2021/08/26 02:16:34;;;;;;;0.60;0.60;;;13.00;99.90;;;;;;5156718;27;20437;-82
2021/08/26 02:19:02;;;;;;;1.27;1.10;;;13.00;99.90;;;;;;5157195;27;20452;-82
2021/08/26 02:21:29;;;;;;;2.30;0.70;;;12.90;99.90;;;;;;5156558;27;20442;-81
2021/08/26 02:23:56;;;;;;;1.33;0.87;;;12.90;99.90;;;;;;5156767;27;20469;-81
2021/08/26 02:26:23;;;;;;;4.70;1.07;;;12.90;99.90;;;;;;5156538;27;20948;-82
2021/08/26 02:28:50;;;;;;;1.10;1.10;;;12.90;99.90;;;;;;5156456;27;20455;-82
2021/08/26 02:31:17;;;;;;;0.60;0.50;;;12.90;99.90;;;;;;5156628;27;20477;-82
2021/08/26 02:33:44;;;;;;;2.97;1.13;;;12.90;99.90;;;;;;5156557;27;20469;-81
2021/08/26 02:36:12;;;;;;;2.40;0.70;;;12.90;99.90;;;;;;5156676;27;20781;-82
2021/08/26 02:38:38;;;;;;;3.33;0.80;;;12.80;99.90;;;;;;5156249;27;21035;-81
2021/08/26 02:41:05;;;;;;;1.40;1.10;;;12.80;99.90;;;;;;5156011;27;20433;-82
2021/08/26 02:43:32;;;;;;;0.50;0.50;;;12.80;99.90;;;;;;5156414;27;20468;-82
2021/08/26 02:45:59;;;;;;;1.67;0.83;;;12.80;99.90;;;;;;5156090;27;20936;-81
2021/08/26 02:48:25;;;;;;;3.07;1.10;;;12.70;99.90;;;;;;5156338;27;20449;-81
2021/08/26 02:50:52;;;;;;;0.60;0.50;;;12.70;99.90;;;;;;5156213;27;20496;-81
2021/08/26 02:53:20;;;;;;;1.40;0.73;;;12.70;99.90;;;;;;5155862;27;20972;-82
2021/08/26 02:55:47;;;;;;;0.40;0.40;;;12.70;99.90;;;;;;5156060;27;20445;-82
2021/08/26 02:58:14;;;;;;;0.50;0.50;;;12.60;99.90;;;;;;5155829;27;20449;-82
2021/08/26 03:00:41;;;;;;;1.70;1.20;;;12.70;99.90;;;;;;5156111;27;20441;-82
2021/08/26 03:03:07;;;;;;;2.50;1.20;;;12.70;99.90;;;;;;5155708;27;20465;-81
2021/08/26 03:05:34;;;;;;;1.00;0.90;;;12.70;99.90;;;;;;5156000;27;20487;-82
2021/08/26 03:08:01;;;;;;;3.57;0.90;;;12.70;99.90;;;;;;5155958;27;20457;-82
2021/08/26 03:10:30;;;;;;;8.43;1.67;;;12.70;99.90;;;;;;5156460;27;20437;-81
2021/08/26 03:12:57;;;;;;;0.70;0.70;;;12.70;99.90;;;;;;5155804;27;20840;-81
2021/08/26 03:15:23;;;;;;;1.60;0.70;;;12.80;99.90;;;;;;5155822;27;20449;-82
2021/08/26 03:17:50;;;;;;;1.03;0.80;;;12.80;99.90;;;;;;5156037;27;20445;-82
2021/08/26 03:20:20;;;;;;;1.90;0.80;;;12.80;99.90;;;;;;5155421;27;20951;-82
2021/08/26 03:22:47;;;;;;;2.93;1.83;;;12.80;99.90;;;;;;5155654;27;20461;-81
2021/08/26 03:25:14;;;;;;;1.03;0.60;;;12.80;99.90;;;;;;5155343;27;20441;-81
2021/08/26 03:27:42;;;;;;;0.80;0.70;;;12.90;99.90;;;;;;5155589;27;20457;-81
2021/08/26 03:30:10;;;;;;;0.70;0.70;;;12.90;99.90;;;;;;5155825;27;20438;-81
2021/08/26 03:32:36;;;;;;;0.90;0.80;;;12.90;99.90;;;;;;5155059;27;21112;-82
2021/08/26 03:35:04;;;;;;;3.33;1.40;;;12.90;99.90;;;;;;5155462;27;20445;-81
2021/08/26 03:37:31;;;;;;;8.30;1.27;;;12.90;99.90;;;;;;5155713;27;20452;-81
2021/08/26 03:39:57;;;;;;;1.30;0.70;;;12.90;99.90;;;;;;5155390;27;20448;-82
2021/08/26 03:42:24;;;;;;;1.80;1.70;;;13.00;99.90;;;;;;5155019;27;20477;-82
2021/08/26 03:44:52;;;;;;;2.83;0.97;;;13.00;99.90;;;;;;5155319;27;20441;-81
2021/08/26 03:47:19;;;;;;;2.00;1.23;;;13.00;99.90;;;;;;5155298;27;20448;-81
2021/08/26 03:49:46;;;;;;;2.03;0.70;;;13.00;99.90;;;;;;5155377;27;20836;-81
2021/08/26 03:52:13;;;;;;;2.93;1.30;;;13.00;99.90;;;;;;5155122;27;20465;-81
2021/08/26 03:54:39;;;;;;;1.07;0.80;;;13.00;99.90;;;;;;5155455;27;20459;-81
2021/08/26 03:57:06;;;;;;;1.40;0.70;;;13.00;99.90;;;;;;5155172;27;20444;-81
2021/08/26 03:59:33;;;;;;;0.83;0.80;;;13.00;99.90;;;;;;5155115;27;20468;-81
2021/08/26 04:02:01;;;;;;;1.93;0.70;;;13.00;99.90;;;;;;5155043;27;20438;-81
2021/08/26 04:04:28;;;;;;;0.73;0.73;;;13.00;99.90;;;;;;5155098;27;20453;-81
2021/08/26 04:06:55;;;;;;;1.20;0.93;;;13.00;99.90;;;;;;5154189;27;20451;-81
2021/08/26 04:09:21;;;;;;;1.37;1.23;;;13.00;99.90;;;;;;5154981;27;20447;-81
2021/08/26 04:11:48;;;;;;;1.90;1.00;;;13.00;99.90;;;;;;5154608;27;20476;-81
2021/08/26 04:14:15;;;;;;;1.90;0.50;;;13.00;99.90;;;;;;5154899;27;20481;-81
2021/08/26 04:16:42;;;;;;;1.27;0.93;;;13.00;99.90;;;;;;5154914;27;20451;-81
2021/08/26 04:19:10;;;;;;;1.70;0.90;;;12.90;99.90;;;;;;5155185;27;20441;-81
2021/08/26 04:21:36;;;;;;;0.60;0.50;;;12.90;99.90;;;;;;5154642;27;20445;-81
2021/08/26 04:24:03;;;;;;;0.60;0.60;;;12.90;99.90;;;;;;5154814;27;20471;-81
2021/08/26 04:26:30;;;;;;;0.60;0.50;;;12.90;99.90;;;;;;5154920;27;20444;-80
2021/08/26 04:28:57;;;;;;;0.40;0.40;;;12.90;99.90;;;;;;5154838;27;20932;-81
2021/08/26 04:31:24;;;;;;;0.90;0.70;;;12.90;99.90;;;;;;5154754;27;20488;-81
2021/08/26 04:33:50;;;;;;;3.57;1.00;;;12.90;99.90;;;;;;5154460;27;20468;-81
2021/08/26 04:36:18;;;;;;;0.67;0.53;;;12.90;99.90;;;;;;5154783;27;20452;-81
2021/08/26 04:38:45;;;;;;;1.10;0.63;;;12.90;99.90;;;;;;5154769;27;20456;-81
2021/08/26 04:41:12;;;;;;;0.70;0.70;;;13.00;99.90;;;;;;5154277;27;20814;-82
2021/08/26 04:43:39;;;;;;;0.70;0.70;;;13.00;99.90;;;;;;5154392;27;20828;-81
2021/08/26 04:46:05;;;;;;;0.70;0.70;;;13.00;99.90;;;;;;5154608;27;20425;-81
2021/08/26 04:48:32;;;;;;;1.40;0.90;;;13.00;99.90;;;;;;5154775;27;20429;-82
2021/08/26 04:50:59;;;;;;;1.80;1.70;;;13.10;99.90;;;;;;5154614;27;20440;-82
2021/08/26 04:53:27;;;;;;;2.73;1.73;;;13.00;99.90;;;;;;5154552;27;20469;-82
2021/08/26 04:55:54;;;;;;;0.50;0.50;;;13.00;99.90;;;;;;5154644;27;20799;-81
2021/08/26 04:58:20;;;;;;;3.10;1.10;;;13.10;99.90;;;;;;5154574;27;20453;-82
2021/08/26 05:00:47;;;;;;;1.87;0.73;;;13.10;99.90;;;;;;5154390;27;20456;-82
2021/08/26 05:03:14;;;;;;;1.10;1.00;;;13.10;99.90;;;;;;5154409;27;20469;-81
2021/08/26 05:05:41;;;;;;;1.70;1.13;;;13.10;99.90;;;;;;5154197;27;20445;-81
2021/08/26 05:08:08;;;;;;;1.00;0.70;;;13.10;99.90;;;;;;5154636;27;20441;-81
2021/08/26 05:10:38;;;;;;;0.80;0.80;;;13.10;99.90;;;;;;5154474;27;20447;-82
2021/08/26 05:13:06;;;;;;;1.83;0.90;;;13.10;99.90;;;;;;5154068;27;20492;-81
2021/08/26 05:15:33;;;;;;;4.80;1.30;;;13.20;99.90;;;;;;5154434;27;20452;-81
2021/08/26 05:18:00;;;;;;;1.27;0.90;;;13.10;99.90;;;;;;5154690;27;20445;-81
2021/08/26 05:20:27;;;;;;;1.47;0.80;;;13.20;99.90;;;;;;5157964;27;20460;-81
2021/08/26 05:22:53;;;;;;;1.80;1.03;;;13.20;99.90;;;;;;5158032;27;20468;-81
2021/08/26 05:25:20;;;;;;;1.47;0.63;;;13.20;99.90;;;;;;5158005;27;20441;-81
2021/08/26 05:27:48;;;;;;;0.57;0.57;;;13.20;99.90;;;;;;5158127;27;20456;-81
2021/08/26 05:30:15;;;;;;;0.70;0.70;;;13.30;99.90;;;;;;5157916;27;20452;-81
2021/08/26 05:32:42;;;;;;;1.53;0.63;;;13.30;99.90;;;;;;5157536;27;20488;-81
2021/08/26 05:35:10;;;;;;;1.63;0.60;;;13.40;99.90;;;;;;5157921;27;20434;-81
2021/08/26 05:37:36;;;;;;;0.70;0.70;;;13.40;99.90;;;;;;5158017;27;20453;-82
2021/08/26 05:40:04;;;;;;;3.30;1.20;;;13.40;99.90;;;;;;5157716;27;20445;-82
2021/08/26 05:42:31;;;;;;;1.63;0.70;;;13.40;99.90;;;;;;5157353;27;20484;-81
2021/08/26 05:44:59;;;;;;;3.33;1.20;;;13.50;99.90;;;;;;5157779;27;20449;-81
2021/08/26 05:47:26;;;;;;;1.43;1.00;;;13.50;99.90;;;;;;5157542;27;20449;-81
2021/08/26 05:49:53;;;;;;;1.10;0.80;;;13.60;99.90;;;;;;5157602;27;20445;-82
2021/08/26 05:52:19;;;;;;;2.60;0.93;;;13.60;99.90;;;;;;5157059;27;20488;-81
2021/08/26 05:54:47;;;;;;;1.50;1.40;;;13.60;99.90;;;;;;5157448;27;20444;-82
2021/08/26 05:57:13;;;;;;;0.90;0.90;;;13.70;99.90;;;;;;5157397;27;20445;-81
2021/08/26 05:59:41;;;;;;;0.77;0.67;;;13.70;99.90;;;;;;5157365;27;20441;-81
2021/08/26 06:02:09;;;;;;;1.60;0.83;;;13.80;99.90;;;;;;5157391;27;20442;-81
2021/08/26 06:04:36;;;;;;;1.13;0.87;;;13.80;99.90;;;;;;5157249;27;20452;-81
2021/08/26 06:07:03;;;;;;;1.23;0.70;;;13.80;99.90;;;;;;5157531;27;20449;-81
2021/08/26 06:09:29;;;;;;;2.30;1.00;;;13.90;99.90;;;;;;5157514;27;20516;-81
2021/08/26 06:11:56;;;;;;;1.17;0.80;;;13.90;99.90;;;;;;5157043;27;20481;-81
2021/08/26 06:14:23;;;;;;;1.03;0.90;;;13.90;99.90;;;;;;5156794;27;20445;-81
2021/08/26 06:16:50;;;;;;;1.63;0.93;;;14.00;99.90;;;;;;5157055;27;20453;-81
2021/08/26 06:19:18;;;;;;;1.50;0.73;;;14.00;99.90;;;;;;5157011;27;20804;-81
2021/08/26 06:21:44;;;;;;;5.43;1.60;;;14.00;99.90;;;;;;5157187;27;20434;-81
2021/08/26 06:24:11;;;;;;;0.70;0.70;;;14.10;99.90;;;;;;5156801;27;20465;-81
2021/08/26 06:26:38;;;;;;;0.70;0.63;;;14.10;99.90;;;;;;5156553;27;20445;-81
2021/08/26 06:29:05;;;;;;;0.80;0.80;;;14.20;99.90;;;;;;5156048;27;20516;-81
2021/08/26 06:31:32;;;;;;;1.67;1.03;;;14.20;99.90;;;;;;5156694;27;20453;-81
2021/08/26 06:33:58;;;;;;;4.73;1.30;;;14.30;99.90;;;;;;5156414;27;20457;-81
2021/08/26 06:36:26;;;;;;;1.13;1.03;;;14.30;99.90;;;;;;5156599;27;20441;-81
2021/08/26 06:38:53;;;;;;;1.53;1.17;;;14.30;99.90;;;;;;5156967;27;20441;-82
2021/08/26 06:41:20;;;;;;;0.60;0.60;;;14.30;99.90;;;;;;5156398;27;20473;-82
2021/08/26 06:43:47;;;;;;;1.80;0.90;;;14.30;99.90;;;;;;5156405;27;20472;-81
2021/08/26 06:46:13;;;;;;;0.93;0.93;;;14.40;99.90;;;;;;5156437;27;20422;-81
2021/08/26 06:48:40;;;;;;;0.70;0.70;;;14.40;99.90;;;;;;5156442;27;20429;-81
2021/08/26 06:51:07;;;;;;;6.53;1.30;;;14.40;99.90;;;;;;5156371;27;20441;-81
2021/08/26 06:53:35;;;;;;;1.43;1.20;;;14.40;99.90;;;;;;5156171;27;21011;-81
2021/08/26 06:56:02;;;;;;;0.60;0.60;;;14.50;99.90;;;;;;5156493;27;20433;-82
2021/08/26 06:58:28;;;;;;;0.97;0.80;;;14.50;99.90;;;;;;5156137;27;20456;-82
2021/08/26 07:00:55;;;;;;;1.80;1.03;;;14.50;99.90;;;;;;5155866;27;20440;-82
2021/08/26 07:03:22;;;;;;;1.47;1.00;;;14.50;99.90;;;;;;5156035;27;20467;-82
2021/08/26 07:05:48;;;;;;;1.43;1.13;;;14.50;99.90;;;;;;5156062;27;20441;-82
2021/08/26 07:08:15;;;;;;;1.37;0.70;;;14.50;99.90;;;;;;5155951;27;20456;-82
2021/08/26 07:10:43;;;;;;;1.20;0.70;;;14.50;99.90;;;;;;5155926;27;20445;-82
2021/08/26 07:13:10;;;;;;;1.60;1.30;;;14.50;99.90;;;;;;5155397;27;20854;-82
2021/08/26 07:15:37;;;;;;;0.80;0.80;;;14.50;99.90;;;;;;5155828;27;20452;-81
2021/08/26 07:18:05;;;;;;;1.13;1.03;;;14.50;99.90;;;;;;5155820;27;20445;-82
2021/08/26 07:20:32;;;;;;;1.17;0.90;;;14.50;99.90;;;;;;5155783;27;20485;-82
2021/08/26 07:22:59;;;;;;;1.20;0.80;;;14.50;99.90;;;;;;5155315;27;20461;-82
2021/08/26 07:25:26;;;;;;;4.07;1.27;;;14.50;99.90;;;;;;5155396;27;20944;-81
2021/08/26 07:27:54;;;;;;;1.30;1.20;;;14.50;99.90;;;;;;5155362;27;20430;-84
2021/08/26 07:30:21;;;;;;;0.87;0.80;;;14.50;99.90;;;;;;5155605;27;20441;-84
2021/08/26 07:32:48;;;;;;;1.33;0.77;;;14.50;99.90;;;;;;5155645;27;20496;-84
2021/08/26 07:35:15;;;;;;;1.63;1.40;;;14.50;99.90;;;;;;5155555;27;20441;-84
2021/08/26 07:37:41;;;;;;;1.63;0.90;;;14.50;99.90;;;;;;5155511;27;20445;-84
2021/08/26 07:40:11;;;;;;;2.40;0.90;;;14.50;99.90;;;;;;5155197;27;20844;-84
2021/08/26 07:42:38;;;;;;;1.03;0.77;;;14.50;99.90;;;;;;5154132;27;20485;-84
2021/08/26 07:45:08;;;;;;;0.90;0.90;;;14.50;99.90;;;;;;5155071;27;20441;-84
2021/08/26 07:47:34;;;;;;;1.23;0.93;;;14.60;99.90;;;;;;5155329;27;20442;-83
2021/08/26 07:50:01;;;;;;;1.40;1.30;;;14.60;99.90;;;;;;5155728;27;20430;-82
2021/08/26 07:52:28;;;;;;;0.97;0.87;;;14.60;99.90;;;;;;5155065;27;20488;-82
2021/08/26 07:54:55;;;;;;;1.40;0.80;;;14.70;99.90;;;;;;5155293;27;20453;-82
2021/08/26 07:57:21;;;;;;;2.83;1.17;;;14.70;99.90;;;;;;5155229;27;20449;-82
2021/08/26 07:59:48;;;;;;;2.00;0.80;;;14.70;99.90;;;;;;5155166;27;20445;-82
2021/08/26 08:02:16;;;;;;;1.17;0.90;;;14.80;99.90;;;;;;5155074;27;20445;-82
2021/08/26 08:04:43;;;;;;;1.37;0.73;;;14.80;99.90;;;;;;5155155;27;20464;-82
2021/08/26 08:07:10;;;;;;;3.83;1.10;;;14.90;99.90;;;;;;5155135;27;20480;-82
2021/08/26 08:09:37;;;;;;;0.67;0.67;;;15.00;99.90;;;;;;5155260;27;20443;-82
2021/08/26 08:12:04;;;;;;;0.90;0.77;;;15.10;99.90;;;;;;5155120;27;20487;-82
2021/08/26 08:14:31;;;;;;;1.83;1.17;;;15.10;99.90;;;;;;5154700;27;20434;-82
2021/08/26 08:16:58;;;;;;;1.33;1.07;;;15.20;99.90;;;;;;5155085;27;20430;-83
2021/08/26 08:19:27;;;;;;;3.30;1.10;;;15.30;99.90;;;;;;5154708;27;20908;-80
2021/08/26 08:21:54;;;;;;;4.50;1.20;;;15.40;99.90;;;;;;5155165;27;20436;-84
2021/08/26 08:24:20;;;;;;;1.90;0.80;;;15.50;99.90;;;;;;5154928;27;20484;-84
2021/08/26 08:26:47;;;;;;;0.90;0.90;;;15.50;99.90;;;;;;5154684;27;20410;-84
2021/08/26 08:29:14;;;;;;;2.53;1.47;;;15.60;99.90;;;;;;5155145;27;20437;-84
2021/08/26 08:31:41;;;;;;;2.77;1.67;;;15.70;99.90;;;;;;5154880;27;20768;-85
2021/08/26 08:34:08;;;;;;;1.17;0.97;;;15.70;99.90;;;;;;5154898;27;20496;-84
2021/08/26 08:36:37;;;;;;;4.50;1.27;;;15.70;99.90;;;;;;5154993;27;20421;-85
2021/08/26 08:39:04;;;;;;;2.27;1.30;;;15.70;99.90;;;;;;5154930;27;20429;-84
2021/08/26 08:41:32;;;;;;;2.87;1.40;;;15.70;99.90;;;;;;5154988;27;20493;-85
2021/08/26 08:44:00;;;;;;;2.63;1.10;;;15.60;99.90;;;;;;5154833;27;20461;-85
2021/08/26 08:46:27;;;;;;;2.70;1.67;;;15.60;99.90;;;;;;5154596;27;20418;-84
2021/08/26 08:48:56;;;;;;;2.80;1.20;;;15.60;99.90;;;;;;5154834;27;20790;-84
2021/08/26 08:51:24;;;;;;;6.20;1.40;;;15.50;99.90;;;;;;5154654;27;20922;-84
2021/08/26 08:53:52;;;;;;;2.97;1.73;;;15.50;99.90;;;;;;5157807;27;20481;-84
2021/08/26 08:56:19;;;;;;;2.50;1.30;;;15.50;99.90;;;;;;5158692;27;20796;-85
2021/08/26 08:58:45;;;;;;;1.33;1.20;;;15.40;99.90;;;;;;5158866;27;20901;-85
2021/08/26 09:01:15;;;;;;;5.17;1.37;;;15.40;99.90;;;;;;5158332;27;20904;-85
2021/08/26 09:03:42;;;;;;;2.07;1.70;;;15.40;99.90;;;;;;5158526;27;20472;-85
2021/08/26 09:06:09;;;;;;;2.37;1.10;;;15.40;99.90;;;;;;5158571;27;20440;-85
2021/08/26 09:08:36;;;;;;;2.57;1.00;;;15.40;99.90;;;;;;5158778;27;20461;-86
2021/08/26 09:11:13;;;;;;;1.23;0.90;;;15.50;99.90;;;;;;5158521;27;20436;-85
2021/08/26 09:13:40;;;;;;;1.67;1.50;;;15.40;99.90;;;;;;5158231;27;20485;-86
2021/08/26 09:16:08;;;;;;;2.33;1.50;;;15.30;99.90;;;;;;5158600;27;20437;-86
2021/08/26 09:18:35;;;;;;;1.90;1.50;;;15.30;99.90;;;;;;5158647;27;20803;-91
2021/08/26 09:21:04;;;;;;;2.10;1.50;;;15.20;99.90;;;;;;5158384;27;20433;-90
2021/08/26 09:23:33;;;;;;;5.00;2.03;;;15.10;99.90;;;;;;5158265;27;20547;-84
2021/08/26 09:26:18;;;;;;;1.57;1.27;;;15.10;99.90;;;;;;5158418;27;20422;-83
2021/08/26 09:28:46;;;;;;;1.73;1.40;;;15.10;99.90;;;;;;5157969;27;20901;-84
2021/08/26 09:31:17;;;;;;;2.00;1.10;;;15.10;99.90;;;;;;5157989;27;20440;-83
2021/08/26 09:33:49;;;;;;;1.43;1.43;;;15.00;99.90;;;;;;5157809;27;20480;-83
2021/08/26 09:36:18;;;;;;;1.47;1.33;;;15.00;99.90;;;;;;5157911;27;20441;-82
2021/08/26 09:38:53;;;;;;;1.83;1.20;;;15.00;99.90;;;;;;5157719;27;20414;-80
2021/08/26 09:44:16;;;;;;;2.37;1.43;;;14.90;99.90;;;;;;5090613;28;20551;-80
2021/08/26 09:46:44;;;;;;;1.97;1.60;;;14.90;99.90;;;;;;5090706;28;20448;-80
2021/08/26 09:49:12;;;;;;;4.27;1.70;;;14.90;99.90;;;;;;5090923;28;20432;-80
2021/08/26 09:51:40;;;;;;;3.10;1.73;;;14.90;99.90;;;;;;5090627;28;20771;-80
2021/08/26 09:54:28;;;;;;;2.90;1.57;;;14.90;99.90;;;;;;5090751;28;20460;-80
2021/08/26 09:56:55;;;;;;;2.17;1.20;;;14.80;99.90;;;;;;5090469;28;20445;-80
2021/08/26 09:59:42;;;;;;;3.47;1.77;;;14.80;99.90;;;;;;5090461;28;20946;-82
2021/08/26 10:17:53;;;;;;;1.43;1.13;;;14.80;99.90;;;;;;4969155;28;20863;-80
2021/08/26 10:20:20;;;;;;;1.20;1.10;;;14.80;99.90;;;;;;5030368;28;20521;-80
2021/08/26 10:22:48;;;;;;;0.63;0.63;;;14.70;99.90;;;;;;5030031;28;20859;-80
2021/08/26 10:25:15;;;;;;;3.10;1.50;;;14.70;99.90;;;;;;5030091;28;20446;-80
2021/08/26 10:27:42;;;;;;;2.43;1.30;;;14.70;99.90;;;;;;5030515;28;20448;-80
2021/08/26 10:30:26;;;;;;;1.83;1.00;;;14.60;99.90;;;;;;5030043;28;20434;-80
2021/08/26 10:33:05;;;;;;;0.93;0.80;;;14.60;99.90;;;;;;5029961;28;20469;-80
2021/08/26 10:35:32;;;;;;;0.50;0.50;;;14.50;99.90;;;;;;5029992;28;20437;-80
2021/08/26 10:37:59;;;;;;;0.80;0.50;;;14.50;99.90;;;;;;5029990;28;20463;-78
2021/08/26 10:40:34;;;;;;;0.47;0.47;;;14.40;99.90;;;;;;5029859;28;20435;-79
2021/08/26 10:43:02;;;;;;;0.40;0.37;;;14.40;99.90;;;;;;5029715;28;20857;-79
2021/08/26 10:45:47;;;;;;;0.40;0.40;;;14.40;99.90;;;;;;5029733;28;20435;-79
2021/08/26 10:48:17;;;;;;;0.40;0.30;;;14.40;99.90;;;;;;5029319;28;20943;-78
2021/08/26 10:50:49;;;;;;;0.47;0.30;;;14.40;99.90;;;;;;5029632;28;20439;-76
2021/08/26 10:53:26;;;;;;;0.30;0.30;;;14.40;99.90;;;;;;5029832;28;20537;-88
2021/08/26 10:55:54;;;;;;;0.60;0.60;;;14.50;99.90;;;;;;5016556;28;20443;-82
2021/08/26 10:58:37;;;;;;;1.13;0.70;;;14.50;99.90;;;;;;5016158;28;20443;-81
2021/08/26 11:01:07;;;;;;;0.40;0.30;;;14.40;99.90;;;;;;5016428;28;20443;-82
2021/08/26 11:03:55;;;;;;;0.60;0.50;;;14.30;99.90;;;;;;5015890;28;20495;-85
2021/08/26 11:06:42;;;;;;;0.70;0.60;;;14.30;99.90;;;;;;5016280;28;20444;-83
2021/08/26 11:09:38;;;;;;;1.70;1.13;;;14.20;99.90;;;;;;5016509;28;20416;-80
2021/08/26 11:12:27;;;;;;;1.53;0.57;;;14.20;99.90;;;;;;5016057;28;20482;-80
2021/08/26 11:14:56;;;;;;;1.00;0.80;;;14.30;99.90;;;;;;5031700;28;20475;-80
2021/08/26 11:17:42;;;;;;;0.73;0.73;;;14.40;99.90;;;;;;5035835;28;20438;-80
2021/08/26 11:20:29;;;;;;;0.43;0.43;;;14.60;99.90;;;;;;5035625;28;20442;-80
2021/08/26 11:23:06;;;;;;;0.50;0.43;;;14.80;99.90;;;;;;5035442;28;20486;-80
2021/08/26 11:25:33;;;;;;;2.00;0.87;;;15.00;99.90;;;;;;5035401;28;20806;-81
2021/08/26 11:28:27;;;;;;;1.43;0.50;;;15.10;99.90;;;;;;5035460;28;20431;-80
2021/08/26 11:30:54;;;;;;;1.90;0.60;;;15.20;99.90;;;;;;5035565;28;20440;-80
2021/08/26 11:33:28;;;;;;;6.33;0.70;;;15.30;99.90;;;;;;5035406;28;20466;-80
2021/08/26 11:35:54;;;;;;;0.60;0.50;;;15.50;99.90;;;;;;5035435;28;20423;-80
2021/08/26 11:38:21;;;;;;;0.40;0.40;;;15.60;99.90;;;;;;5035074;28;20941;-81
2021/08/26 11:40:48;;;;;;;1.77;0.80;;;15.80;99.90;;;;;;5035339;28;20438;-81
2021/08/26 11:43:14;;;;;;;4.20;0.77;;;16.00;99.90;;;;;;5035051;28;20501;-81
2021/08/26 11:45:41;;;;;;;2.30;0.53;;;16.20;99.90;;;;;;5035247;28;20431;-80
2021/08/26 11:48:09;;;;;;;1.00;0.80;;;16.30;99.90;;;;;;5035200;28;20431;-80
2021/08/26 11:50:39;;;;;;;1.03;0.80;;;16.40;99.90;;;;;;5035159;28;20493;-80
2021/08/26 11:53:08;;;;;;;1.50;0.53;;;16.60;99.90;;;;;;5035770;28;20503;-81
2021/08/26 11:55:38;;;;;;;0.43;0.43;;;16.60;99.90;;;;;;5035034;28;20788;-81
2021/08/26 11:58:07;;;;;;;0.73;0.70;;;16.80;99.90;;;;;;5034753;28;20439;-83
2021/08/26 12:00:35;;;;;;;1.07;0.73;;;16.90;99.90;;;;;;5034695;28;20934;-81
2021/08/26 12:03:03;;;;;;;0.50;0.50;;;17.00;99.90;;;;;;5034459;28;21032;-82
2021/08/26 12:05:30;;;;;;;0.70;0.50;;;17.00;99.90;;;;;;5034194;28;20476;-82
2021/08/26 12:07:58;;;;;;;3.10;1.70;;;16.90;99.90;;;;;;5034652;28;20438;-81
2021/08/26 12:10:29;;;;;;;1.60;0.83;;;17.00;99.90;;;;;;5034734;28;20453;-82
2021/08/26 12:12:59;;;;;;;0.40;0.40;;;16.90;99.90;;;;;;5034574;28;20898;-82
2021/08/26 12:15:29;;;;;;;0.80;0.60;;;16.90;99.90;;;;;;5034655;28;20423;-82
2021/08/26 12:17:58;;;;;;;1.07;0.80;;;16.80;99.90;;;;;;5034347;28;20924;-82
2021/08/26 12:20:27;;;;;;;0.43;0.43;;;16.80;99.90;;;;;;5034351;28;20740;-82
2021/08/26 12:22:55;;;;;;;0.40;0.40;;;16.90;99.90;;;;;;5034444;28;20490;-81
2021/08/26 12:25:27;;;;;;;0.40;0.40;;;17.00;99.90;;;;;;5034506;28;20432;-81
2021/08/26 12:27:55;;;;;;;1.97;0.70;;;17.10;99.90;;;;;;5034982;28;20434;-82
2021/08/26 12:30:30;;;;;;;0.50;0.50;;;17.30;99.90;;;;;;5034375;28;20434;-82
2021/08/26 12:33:13;;;;;;;1.03;0.50;;;17.40;99.90;;;;;;5034263;28;20552;-82
2021/08/26 12:35:41;;;;;;;1.27;0.50;;;17.40;99.90;;;;;;5033938;28;20434;-82
2021/08/26 12:38:09;;;;;;;0.93;0.73;;;17.30;99.90;;;;;;5034253;28;20443;-81
2021/08/26 12:40:51;;;;;;;2.20;0.87;;;17.20;99.90;;;;;;5034087;28;20446;-83
2021/08/26 12:43:19;;;;;;;0.50;0.47;;;17.10;99.90;;;;;;5034057;28;20824;-83
2021/08/26 12:45:46;;;;;;;1.07;1.00;;;17.00;99.90;;;;;;5034084;28;20793;-83
2021/08/26 12:48:26;;;;;;;1.47;0.73;;;17.00;99.90;;;;;;5034086;28;20429;-84
2021/08/26 12:51:18;;;;;;;0.60;0.53;;;16.90;99.90;;;;;;5034023;28;20435;-82
2021/08/26 12:53:47;;;;;;;0.57;0.40;;;16.80;99.90;;;;;;5033644;28;20475;-83
2021/08/26 12:56:17;;;;;;;1.33;0.50;;;16.90;99.90;;;;;;5033655;28;20926;-84
2021/08/26 12:58:55;;;;;;;0.40;0.40;;;16.90;99.90;;;;;;5033918;28;20446;-83
2021/08/26 13:01:23;;;;;;;1.40;0.60;;;17.10;99.90;;;;;;5033627;28;20419;-83
2021/08/26 13:03:51;;;;;;;3.30;0.97;;;17.20;99.90;;;;;;5033734;28;20513;-85
2021/08/26 13:06:39;;;;;;;1.53;0.60;;;17.30;99.90;;;;;;5033874;28;20809;-85
2021/08/26 13:09:09;;;;;;;1.83;0.63;;;17.20;99.90;;;;;;5033717;28;20457;-85
2021/08/26 13:11:39;;;;;;;1.57;0.77;;;17.20;99.90;;;;;;5033776;28;20478;-85
2021/08/26 13:14:07;;;;;;;0.70;0.50;;;17.20;99.90;;;;;;5033646;28;20578;-85
2021/08/26 13:16:34;;;;;;;0.80;0.70;;;17.20;99.90;;;;;;5033669;28;20434;-85